Aeroporto :
LOGIN :

Iscrizione | Disclaimer

   EN    FR    IT 

 










Sommario :    VFR   VFR Marginale   IFR   IFR Intensivo   IFR Molto Intensivo
Visibilità : 
Base nubi : 
>= 8 km
>= 3000ft
5 / 8 km
1000 / 3000 ft
1500m / 5 km
500 / 1000 ft
800 / 1500m
200 / 500 ft
< 800m
< 200 ft
Simboli :   Temporali  Nebbia  Neve Forte  Precipitazioni Forti  Vento > 20 kt
SIGMETs :   Varie  Temporali  Ghiacco  Turbolenza  Onda orograficha  Ceneri Vulcaniche






- Altitudine del aeroporto : 33 ft
- Codice IATA : MHZ


EGUN - RAF Mildenhall

ULTIMO METAR :
  • 301907Z AUTO 30014KT 9999 SCT055 09/09 A3003 RMK AO2 RAB1855E01DZB01E05RAB05E07 SLP172 FZRANO $

METARs OBSOLETI :
  • 301857Z AUTO 29014KT 9999 -RA FEW024 FEW055 10/10 A3003 RMK AO2 RAB55 SLP172 FZRANO $
  • 301856Z AUTO 30014KT 9999 FEW024 SCT055 10/10 A3003 RMK AO2 DZB18E24RAB24E53 SLP172 P0005 T00950095 FZRANO $
  • 301818Z AUTO 27014KT 9999 -DZ SCT040 OVC048 10/10 A3003 RMK AO2 DZB18 SLP172 FZRANO $
  • 301756Z AUTO 27018G24KT 9999 OVC046 10/10 A3003 RMK AO2 SLP172 60006 T00960096 10096 20077 57014 FZRANO $
  • 301711Z AUTO 27015G24KT 9999 FEW024 SCT031 BKN048 09/09 A3004 RMK AO2 SLP176 FZRANO $
  • 301656Z AUTO 28016G23KT 9999 BKN050 09/09 A3004 RMK AO2 SLP176 T00920092 FZRANO $
  • 301631Z AUTO 27016KT 9999 BKN050 09/09 A3003 RMK AO2 SLP172 FZRANO $

TAF AMD TAF EGUN
Valido dal 30 a 14 ore il 01 a 18 ore UTC


301400Z 3014/0118 25010G20KT 8000 -RA SCT005 BKN010 620109 QNH3005INS
TEMPO 3014/3016 BKN005
BECMG 3020/3021 32010G20KT 9999 NSW SCT020 QNH3005INS
BECMG 0103/0104 30010G15KT 9999 BKN008 QNH3013INS
BECMG 0107/0108 32010G20KT 9999 SCT008 BKN012 QNH3018INS
BECMG 0111/0112 33010G20KT 9999 BKN015 QNH3020INS TX08/0112Z TN03/0106Z



MetMap, La meteo Aeronautica in un colpo d'occhio ! - Copyright ORBIFLY Dicembre 2007 - Disclaimer

ORBIFLY MET'MAP TEAM :

Programmazione e sviluppo : Alexandra Zaïnal
Concezione : Baudouin d'Aumeries
Aiuto per la programmazione : Marc-Olivier Méhu
Supporto tecnico e logistico : Manuel Goepfert
Aiuto per la traduzione : Arnaldo La Scala

Contatto : metmap@orbifly.com




FONTI E CREDITI :

   NOAA